Date,TemperatureHighF,TemperatureAvgF,TemperatureLowF,DewpointHighF,DewpointAvgF,DewpointLowF,HumidityHigh,HumidityAvg,HumidityLow,PressureMaxIn,PressureMinIn,WindSpeedMaxMPH,WindSpeedAvgMPH,GustSpeedMaxMPH,PrecipitationSumIn
2013-6-1,70.4,59.9,53.7,52.2,48.8,44.3,84,68,44,30.21,30.02,10,1,11,0.00
2013-6-2,67.5,60.4,54.3,54.8,51.0,47.2,89,72,50,30.06,30.01,11,2,14,0.01
2013-6-3,70.9,59.9,52.4,55.6,52.3,50.0,93,78,52,30.09,30.02,10,2,15,0.00
2013-6-4,77.0,64.8,53.1,58.6,53.0,47.6,93,68,43,30.10,29.99,8,1,15,0.00
2013-6-5,75.5,65.2,56.4,59.2,54.1,49.3,83,68,50,30.06,29.99,11,1,15,0.00
2013-6-6,78.1,65.6,55.6,56.5,51.7,45.5,91,64,36,30.02,29.97,15,1,16,0.00
2013-6-7,66.9,61.0,56.4,56.7,51.0,44.4,81,70,52,30.12,29.99,18,4,22,0.00
2013-6-8,66.1,58.7,54.2,52.5,50.1,48.1,83,74,60,30.16,30.06,12,3,14,0.00
2013-6-9,64.5,57.4,53.5,51.8,49.1,46.5,87,74,57,30.08,29.98,11,4,15,0.00
2013-6-10,67.2,59.6,51.9,51.6,48.7,44.5,85,69,47,30.00,29.83,11,3,15,0.00
2013-6-11,64.6,57.5,52.3,51.8,47.8,46.1,83,71,53,30.06,29.89,21,7,23,0.02
2013-6-12,65.4,58.2,53.8,52.1,48.6,44.8,85,71,52,30.10,30.05,17,5,20,0.00
2013-6-13,67.7,59.5,54.0,53.0,49.9,45.8,87,72,48,30.18,30.09,10,1,13,0.00
2013-6-14,64.9,58.9,55.1,52.0,49.7,48.1,81,72,58,30.20,30.03,15,5,19,0.00
2013-6-15,73.3,62.8,52.7,56.2,53.0,50.1,92,72,50,30.02,29.88,11,1,13,0.00
2013-6-16,72.5,63.6,56.1,58.2,54.8,52.3,88,74,57,30.06,29.96,12,2,15,0.00
2013-6-17,75.1,64.1,57.8,56.0,52.9,47.7,87,69,41,30.06,29.85,19,3,21,0.01
2013-6-18,71.2,62.7,56.5,55.4,51.0,44.7,91,68,40,29.95,29.84,14,3,20,0.00
2013-6-19,64.9,59.7,56.0,55.9,52.0,49.8,86,76,59,29.97,29.88,15,3,17,0.00
2013-6-20,60.6,56.9,54.2,55.1,52.5,50.1,96,86,72,30.08,29.92,15,5,17,0.33
2013-6-21,65.4,59.3,53.7,57.6,53.6,51.2,97,83,62,30.13,30.08,12,2,13,0.01
2013-6-22,75.7,64.2,54.7,58.9,54.3,50.0,93,72,45,30.09,29.81,10,1,14,0.00
2013-6-23,70.6,64.8,60.3,63.4,58.7,54.5,96,81,68,29.80,29.55,4,0,10,0.11
2013-6-24,67.4,62.0,57.2,60.8,56.4,53.8,96,83,64,29.66,29.54,18,5,26,0.02
2013-6-25,72.1,62.6,57.6,59.6,56.9,53.0,96,83,54,29.82,29.63,25,3,36,0.12
2013-6-26,70.1,63.4,58.4,61.3,58.3,56.7,96,84,68,30.03,29.80,14,2,20,0.01
2013-6-27,69.8,64.7,61.1,64.0,61.2,56.9,97,89,77,30.16,30.00,10,0,11,0.01
2013-6-28,84.8,71.7,61.3,66.3,62.9,59.7,95,76,47,30.15,30.00,9,1,14,0.00
2013-6-29,82.3,71.9,65.2,66.6,62.6,59.7,90,73,56,30.06,29.96,7,1,9,0.00
2013-6-30,90.0,76.0,62.9,67.6,63.2,57.5,86,67,38,29.99,29.80,10,1,14,0.00